Time;durP1;ratioP1;P1;durP2;ratioP2;P2;SDS_P1;SDS_P2;PMS_P1;PMS_P2;Temp;Humidity;BMP_temperature;BMP_pressure;BME280_temperature;BME280_humidity;BME280_pressure;Samples;Min_cycle;Max_cycle;Signal;HPM_P1;HPM_P2
2023/10/14 00:00:47;;;;;;;5.97;4.43;;;17.10;78.20;;;;;;2086460;28;20507;-85
2023/10/14 00:01:52;;;;;;;5.13;4.40;;;17.20;78.20;;;;;;2082686;28;20552;-85
2023/10/14 00:02:53;;;;;;;7.27;4.10;;;17.20;75.60;;;;;;2085913;28;20476;-86
2023/10/14 00:03:55;;;;;;;5.93;4.47;;;17.30;74.00;;;;;;2076844;28;20471;-86
2023/10/14 00:04:58;;;;;;;6.30;4.20;;;17.40;75.20;;;;;;2066645;28;20269;-85
2023/10/14 00:06:00;;;;;;;5.30;3.97;;;17.40;75.30;;;;;;2073864;28;20467;-86
2023/10/14 00:07:08;;;;;;;5.57;3.93;;;17.40;74.70;;;;;;2065919;28;20513;-86
2023/10/14 00:08:12;;;;;;;6.97;4.23;;;17.40;74.70;;;;;;2068571;28;20470;-85
2023/10/14 00:09:14;;;;;;;5.30;4.33;;;17.40;74.10;;;;;;2071387;28;20435;-86
2023/10/14 00:10:15;;;;;;;6.30;4.50;;;17.40;74.70;;;;;;2086391;28;20437;-85
2023/10/14 00:11:16;;;;;;;4.93;4.07;;;17.50;73.60;;;;;;2086503;28;20449;-84
2023/10/14 00:12:17;;;;;;;5.60;4.33;;;17.40;73.80;;;;;;2072636;28;20434;-85
2023/10/14 00:13:18;;;;;;;8.37;4.30;;;17.40;74.70;;;;;;2077174;28;20427;-86
2023/10/14 00:14:18;;;;;;;5.53;4.00;;;17.30;75.90;;;;;;2078194;28;20549;-85
2023/10/14 00:15:19;;;;;;;9.97;4.50;;;17.30;76.60;;;;;;2071667;28;20203;-85
2023/10/14 00:17:34;;;;;;;7.83;4.67;;;17.20;78.80;;;;;;2075691;28;20513;-84
2023/10/14 00:18:36;;;;;;;8.30;5.00;;;17.10;79.80;;;;;;2073214;28;20463;-85
2023/10/14 00:19:37;;;;;;;9.23;4.50;;;17.10;79.70;;;;;;2072371;28;20976;-86
2023/10/14 00:20:39;;;;;;;7.83;4.60;;;17.10;78.80;;;;;;2047853;28;1070894;-85
2023/10/14 00:21:42;;;;;;;8.67;4.70;;;17.10;81.50;;;;;;2075916;28;20244;-86
2023/10/14 00:22:44;;;;;;;5.33;4.50;;;17.10;81.30;;;;;;2079026;28;20983;-85
2023/10/14 00:23:44;;;;;;;9.40;4.70;;;17.10;83.70;;;;;;2087239;28;21011;-85
2023/10/14 00:24:48;;;;;;;7.47;4.67;;;17.10;80.90;;;;;;2090701;28;20523;-86
2023/10/14 00:25:49;;;;;;;7.93;4.77;;;17.20;79.60;;;;;;2082883;28;20239;-85
2023/10/14 00:26:50;;;;;;;9.67;4.77;;;17.10;80.70;;;;;;2071612;28;20987;-85
2023/10/14 00:27:50;;;;;;;7.37;4.73;;;17.10;82.50;;;;;;2063796;28;20225;-86
2023/10/14 00:28:54;;;;;;;7.67;5.10;;;17.00;84.90;;;;;;2071887;28;20766;-86
2023/10/14 00:30:09;;;;;;;8.00;5.27;;;17.00;87.00;;;;;;2066522;28;20222;-85
2023/10/14 00:31:10;;;;;;;6.03;5.13;;;16.80;87.80;;;;;;2071140;28;20465;-85
2023/10/14 00:32:11;;;;;;;8.77;5.53;;;16.60;90.10;;;;;;2072650;28;20530;-85
2023/10/14 00:33:12;;;;;;;8.93;5.10;;;16.50;91.40;;;;;;2075485;28;20698;-85
2023/10/14 00:34:16;;;;;;;8.30;5.33;;;16.40;91.90;;;;;;2082321;28;20216;-86
2023/10/14 00:35:20;;;;;;;7.30;5.50;;;16.40;92.20;;;;;;2075516;28;20427;-86
2023/10/14 00:36:22;;;;;;;8.40;5.80;;;16.30;92.60;;;;;;2077393;28;20431;-86
2023/10/14 00:37:22;;;;;;;10.33;5.83;;;16.20;93.50;;;;;;2084294;28;20523;-86
2023/10/14 00:38:23;;;;;;;7.87;5.67;;;16.10;94.30;;;;;;2086742;28;20541;-85
2023/10/14 00:39:28;;;;;;;6.40;5.80;;;16.10;94.80;;;;;;2083938;28;20276;-85
2023/10/14 00:40:28;;;;;;;9.30;5.60;;;16.10;94.90;;;;;;2086065;28;20255;-86
2023/10/14 00:41:29;;;;;;;9.17;5.90;;;16.00;94.70;;;;;;2086405;28;21103;-85
2023/10/14 00:42:29;;;;;;;8.53;6.17;;;16.00;95.00;;;;;;2085085;28;20228;-85
2023/10/14 00:43:30;;;;;;;7.13;6.10;;;16.00;95.00;;;;;;2094393;28;20235;-85
2023/10/14 00:44:33;;;;;;;9.27;5.87;;;16.00;95.50;;;;;;2087675;28;20283;-86
2023/10/14 00:45:42;;;;;;;7.40;5.50;;;15.90;95.60;;;;;;2079676;28;20226;-85
2023/10/14 00:46:50;;;;;;;6.17;5.57;;;15.90;95.90;;;;;;2069562;28;20463;-85
2023/10/14 00:47:51;;;;;;;9.17;5.97;;;15.90;95.90;;;;;;2078106;28;20462;-86
2023/10/14 00:48:59;;;;;;;8.70;6.47;;;15.80;96.50;;;;;;2074467;28;20459;-86
2023/10/14 00:50:06;;;;;;;9.93;5.57;;;15.80;96.50;;;;;;2085210;28;20496;-86
2023/10/14 00:51:10;;;;;;;7.73;5.67;;;15.80;96.50;;;;;;2081266;28;20468;-86
2023/10/14 00:52:18;;;;;;;8.97;6.10;;;15.80;96.60;;;;;;2071613;28;20535;-86
2023/10/14 00:53:19;;;;;;;7.93;6.40;;;15.80;97.00;;;;;;2084572;28;20437;-85
2023/10/14 00:54:36;;;;;;;11.93;6.97;;;15.80;97.20;;;;;;2093210;28;20457;-85
2023/10/14 00:56:49;;;;;;;12.40;6.60;;;15.90;98.50;;;;;;2081042;28;20466;-86
2023/10/14 00:57:59;;;;;;;12.47;7.47;;;15.80;98.70;;;;;;2099829;28;20814;-86
2023/10/14 00:59:03;;;;;;;8.53;7.30;;;15.70;99.00;;;;;;2077919;28;20357;-86
2023/10/14 01:00:09;;;;;;;9.10;7.30;;;15.50;99.90;;;;;;2076775;28;20450;-86
2023/10/14 01:01:11;;;;;;;7.60;6.70;;;15.50;99.90;;;;;;2073349;28;20458;-86
2023/10/14 01:02:12;;;;;;;10.20;7.77;;;15.40;99.90;;;;;;2083975;28;20429;-85
2023/10/14 01:03:15;;;;;;;12.40;7.63;;;15.40;99.90;;;;;;2091560;28;20452;-86
2023/10/14 01:04:19;;;;;;;12.93;7.83;;;15.40;99.90;;;;;;2080314;28;20619;-86
2023/10/14 01:05:20;;;;;;;10.00;7.13;;;15.40;99.90;;;;;;2067302;28;20492;-85
2023/10/14 01:06:34;;;;;;;11.90;7.47;;;15.40;99.90;;;;;;2091378;28;20516;-86
2023/10/14 01:07:38;;;;;;;10.57;8.23;;;15.40;99.90;;;;;;2099134;28;20474;-86
2023/10/14 01:08:42;;;;;;;7.40;6.70;;;15.30;99.90;;;;;;2090692;28;20450;-86
2023/10/14 01:10:44;;;;;;;8.60;7.70;;;15.40;99.90;;;;;;2081083;28;20975;-86
2023/10/14 01:11:44;;;;;;;9.80;7.57;;;15.40;99.90;;;;;;2085917;28;20238;-85
2023/10/14 01:12:45;;;;;;;9.40;7.70;;;15.40;99.90;;;;;;2093603;28;20361;-86
2023/10/14 01:13:46;;;;;;;8.57;7.17;;;15.40;99.90;;;;;;2084303;28;20251;-84
2023/10/14 01:14:58;;;;;;;8.13;6.87;;;15.40;99.90;;;;;;2078941;28;20467;-85
2023/10/14 01:16:08;;;;;;;10.90;7.60;;;15.30;99.90;;;;;;2076009;28;20217;-85
2023/10/14 01:17:09;;;;;;;10.83;6.73;;;15.40;99.90;;;;;;2071320;28;20485;-86
2023/10/14 01:18:14;;;;;;;10.50;7.60;;;15.40;99.90;;;;;;2079176;28;20426;-85
2023/10/14 01:19:20;;;;;;;10.60;7.87;;;15.30;99.90;;;;;;2081470;28;20181;-85
2023/10/14 01:21:22;;;;;;;10.97;7.73;;;15.40;99.90;;;;;;2076529;28;20504;-86
2023/10/14 01:22:22;;;;;;;11.00;7.20;;;15.50;99.90;;;;;;2079541;28;20685;-86
2023/10/14 01:23:26;;;;;;;10.03;7.80;;;15.50;99.90;;;;;;2077562;28;20251;-86
2023/10/14 01:24:31;;;;;;;8.60;7.07;;;15.40;99.90;;;;;;2086194;28;20244;-86
2023/10/14 01:25:32;;;;;;;10.20;7.07;;;15.50;99.90;;;;;;2081590;28;20816;-86
2023/10/14 01:26:33;;;;;;;7.93;7.07;;;15.50;99.90;;;;;;2094927;28;20487;-87
2023/10/14 01:27:35;;;;;;;11.80;7.83;;;15.60;99.90;;;;;;2085265;28;20461;-85
2023/10/14 01:28:43;;;;;;;9.20;7.23;;;15.50;99.90;;;;;;2078383;28;20221;-86
2023/10/14 01:29:44;;;;;;;10.90;7.50;;;15.50;99.90;;;;;;2079813;28;20458;-85
2023/10/14 01:33:44;;;;;;;9.10;7.20;;;15.50;99.90;;;;;;2094387;28;20476;-85
2023/10/14 01:34:45;;;;;;;8.30;7.27;;;15.60;99.90;;;;;;2095670;28;20494;-85
2023/10/14 01:35:51;;;;;;;10.40;6.87;;;15.50;99.90;;;;;;2090970;28;20215;-87
2023/10/14 01:36:52;;;;;;;10.30;7.03;;;15.50;99.90;;;;;;2086386;28;20228;-86
2023/10/14 01:37:57;;;;;;;10.97;7.13;;;15.50;99.90;;;;;;2080067;28;20521;-85
2023/10/14 01:39:04;;;;;;;10.53;7.53;;;15.50;99.90;;;;;;2077804;28;20303;-85
2023/10/14 01:40:24;;;;;;;12.80;7.73;;;15.40;99.90;;;;;;2084641;28;20453;-86
2023/10/14 01:41:29;;;;;;;8.97;7.37;;;15.40;99.90;;;;;;2093587;28;21023;-85
2023/10/14 01:42:30;;;;;;;10.67;7.27;;;15.40;99.90;;;;;;2084229;28;20477;-85
2023/10/14 01:43:31;;;;;;;9.27;7.20;;;15.50;99.90;;;;;;2084542;28;20488;-85
2023/10/14 01:44:31;;;;;;;11.37;7.43;;;15.40;99.90;;;;;;2094725;28;20256;-84
2023/10/14 01:45:40;;;;;;;9.27;6.80;;;15.40;99.90;;;;;;2083433;28;20220;-84
2023/10/14 01:46:44;;;;;;;11.67;7.23;;;15.40;99.90;;;;;;2084809;28;20220;-85
2023/10/14 01:47:49;;;;;;;9.33;7.30;;;15.50;99.90;;;;;;2083971;28;20861;-85
2023/10/14 01:48:52;;;;;;;9.23;7.63;;;15.60;99.90;;;;;;2087895;28;20490;-85
2023/10/14 01:49:53;;;;;;;9.73;7.20;;;15.50;99.90;;;;;;2079741;28;20476;-84
2023/10/14 01:50:55;;;;;;;10.53;7.53;;;15.50;99.90;;;;;;2088935;28;20547;-85
2023/10/14 01:51:57;;;;;;;9.47;7.00;;;15.60;99.90;;;;;;2086273;28;20228;-85
2023/10/14 01:53:08;;;;;;;12.90;7.50;;;15.60;99.90;;;;;;2078433;28;20519;-86
2023/10/14 01:54:10;;;;;;;14.67;6.43;;;15.60;99.90;;;;;;2079696;28;20478;-84
2023/10/14 01:55:10;;;;;;;9.70;7.20;;;15.60;99.90;;;;;;2083144;28;20907;-85
2023/10/14 01:56:11;;;;;;;10.87;6.87;;;15.60;99.90;;;;;;2086017;28;20472;-85
2023/10/14 01:57:16;;;;;;;8.53;7.63;;;15.70;99.90;;;;;;2082155;28;20221;-84
2023/10/14 01:58:22;;;;;;;10.23;7.90;;;15.60;99.90;;;;;;2080679;28;20185;-84
2023/10/14 01:59:23;;;;;;;10.90;7.63;;;15.70;99.90;;;;;;2079053;28;21018;-85
2023/10/14 02:00:35;;;;;;;7.60;6.80;;;15.70;99.90;;;;;;2077674;28;20541;-85
2023/10/14 02:01:41;;;;;;;8.33;7.47;;;15.70;99.90;;;;;;2075275;28;20605;-85
2023/10/14 02:02:59;;;;;;;9.97;7.37;;;15.80;99.90;;;;;;2084621;28;20510;-85
2023/10/14 02:04:02;;;;;;;7.57;6.73;;;15.80;99.90;;;;;;2087566;28;20974;-85
2023/10/14 02:05:04;;;;;;;8.83;7.60;;;15.80;99.90;;;;;;2094907;28;20460;-85
2023/10/14 02:06:16;;;;;;;8.63;7.47;;;15.90;99.90;;;;;;2082784;28;20481;-84
2023/10/14 02:07:21;;;;;;;9.93;7.03;;;15.90;99.90;;;;;;2083963;28;20521;-85
2023/10/14 02:08:21;;;;;;;7.33;6.60;;;15.90;99.90;;;;;;2083150;28;20429;-85
2023/10/14 02:09:22;;;;;;;9.10;7.13;;;15.90;99.90;;;;;;2080136;28;20509;-85
2023/10/14 02:10:23;;;;;;;7.80;7.07;;;15.90;99.90;;;;;;2082953;28;21386;-84
2023/10/14 02:11:24;;;;;;;11.27;7.40;;;15.90;99.90;;;;;;2087084;28;20232;-85
2023/10/14 02:12:25;;;;;;;8.70;6.97;;;15.90;99.90;;;;;;2096282;28;20227;-84
2023/10/14 02:13:26;;;;;;;9.83;7.63;;;15.90;99.90;;;;;;2093321;28;21003;-84
2023/10/14 02:14:27;;;;;;;9.83;7.57;;;15.90;99.90;;;;;;2074393;28;20316;-85
2023/10/14 02:15:28;;;;;;;9.30;7.43;;;16.00;99.90;;;;;;2071756;28;20297;-85
2023/10/14 02:16:32;;;;;;;7.63;6.83;;;15.90;99.90;;;;;;2077029;28;21025;-84
2023/10/14 02:17:32;;;;;;;10.43;7.43;;;15.90;99.90;;;;;;2074179;28;20702;-84
2023/10/14 02:18:37;;;;;;;8.53;6.93;;;15.90;99.90;;;;;;2075563;28;20458;-84
2023/10/14 02:19:37;;;;;;;8.47;7.60;;;15.90;99.90;;;;;;2078569;28;20232;-85
2023/10/14 02:20:45;;;;;;;9.83;7.10;;;15.90;99.90;;;;;;2076626;28;21039;-85
2023/10/14 02:21:57;;;;;;;9.73;7.33;;;15.80;99.90;;;;;;2079116;28;20210;-85
2023/10/14 02:22:58;;;;;;;9.07;7.10;;;15.80;99.90;;;;;;2087920;28;20464;-86
2023/10/14 02:24:00;;;;;;;10.33;7.20;;;15.80;99.90;;;;;;2084608;28;20477;-85
2023/10/14 02:25:02;;;;;;;9.60;7.37;;;15.80;99.90;;;;;;2074874;28;20852;-85
2023/10/14 02:26:08;;;;;;;9.83;7.63;;;15.90;99.90;;;;;;2072589;28;20516;-85
2023/10/14 02:27:12;;;;;;;9.70;7.30;;;15.90;99.90;;;;;;2079188;28;20430;-87
2023/10/14 02:28:14;;;;;;;9.73;7.90;;;15.80;99.90;;;;;;2075643;28;20466;-85
2023/10/14 02:29:15;;;;;;;10.97;7.50;;;15.80;99.90;;;;;;2074367;28;20431;-86
2023/10/14 02:30:16;;;;;;;10.17;7.60;;;15.70;99.90;;;;;;2077027;28;20410;-86
2023/10/14 02:31:17;;;;;;;10.23;7.47;;;15.80;99.90;;;;;;2085278;28;20952;-86
2023/10/14 02:32:20;;;;;;;8.87;7.90;;;15.80;99.90;;;;;;2082714;28;20199;-84
2023/10/14 02:33:20;;;;;;;9.70;7.97;;;15.70;99.90;;;;;;2077586;28;20422;-86
2023/10/14 02:34:21;;;;;;;11.53;8.60;;;15.70;99.90;;;;;;2082507;28;20472;-85
2023/10/14 02:35:24;;;;;;;8.60;7.70;;;15.70;99.90;;;;;;2091545;28;20195;-85
2023/10/14 02:36:29;;;;;;;10.63;8.20;;;15.70;99.90;;;;;;2092631;28;21023;-86
2023/10/14 02:37:32;;;;;;;11.23;7.90;;;15.60;99.90;;;;;;2082843;28;20517;-86
2023/10/14 02:38:34;;;;;;;11.73;8.17;;;15.50;99.90;;;;;;2088136;28;20462;-86
2023/10/14 02:39:35;;;;;;;10.77;8.30;;;15.60;99.90;;;;;;2082478;28;20464;-86
2023/10/14 02:40:37;;;;;;;11.10;7.67;;;15.60;99.90;;;;;;2091073;28;20868;-87
2023/10/14 02:41:40;;;;;;;10.37;8.23;;;15.50;99.90;;;;;;2094336;28;20257;-86
2023/10/14 02:42:41;;;;;;;9.63;8.63;;;15.50;99.90;;;;;;2072190;28;21022;-86
2023/10/14 02:43:42;;;;;;;12.20;8.93;;;15.40;99.90;;;;;;2085235;28;20458;-87
2023/10/14 02:44:52;;;;;;;9.77;8.63;;;15.50;99.90;;;;;;2087689;28;20466;-85
2023/10/14 02:45:58;;;;;;;10.90;8.17;;;15.40;99.90;;;;;;2076184;28;20459;-85
2023/10/14 02:47:08;;;;;;;10.00;7.57;;;15.40;99.90;;;;;;2082576;28;20465;-86
2023/10/14 02:48:11;;;;;;;10.40;8.00;;;15.30;99.90;;;;;;2083683;28;20503;-86
2023/10/14 02:49:15;;;;;;;10.23;8.00;;;15.30;99.90;;;;;;2073230;28;20565;-85
2023/10/14 02:50:23;;;;;;;9.37;8.20;;;15.20;99.90;;;;;;2077312;28;20422;-86
2023/10/14 02:51:35;;;;;;;9.80;8.43;;;15.20;99.90;;;;;;2083351;28;20504;-86
2023/10/14 02:52:38;;;;;;;9.33;8.33;;;15.10;99.90;;;;;;2085596;28;20507;-86
2023/10/14 02:53:42;;;;;;;11.90;7.87;;;15.10;99.90;;;;;;2085535;28;20854;-85
2023/10/14 02:54:45;;;;;;;8.30;7.30;;;15.10;99.90;;;;;;2088517;28;20462;-86
2023/10/14 02:55:52;;;;;;;10.13;8.30;;;15.10;99.90;;;;;;2078451;28;20462;-85
2023/10/14 02:57:55;;;;;;;9.60;7.20;;;15.20;99.90;;;;;;2093463;28;20474;-85
2023/10/14 02:58:55;;;;;;;11.50;8.13;;;15.20;99.90;;;;;;2095182;28;20450;-86
2023/10/14 02:59:56;;;;;;;10.20;7.97;;;15.20;99.90;;;;;;2080281;28;20236;-85
2023/10/14 03:00:59;;;;;;;10.47;8.03;;;15.30;99.90;;;;;;2089903;28;20228;-86
2023/10/14 03:02:15;;;;;;;11.00;7.80;;;15.20;99.90;;;;;;2086159;28;20263;-86
2023/10/14 03:03:19;;;;;;;10.73;8.13;;;15.10;99.90;;;;;;2078023;28;20446;-86
2023/10/14 03:04:23;;;;;;;10.03;8.33;;;15.10;99.90;;;;;;2090982;28;20997;-86
2023/10/14 03:05:35;;;;;;;10.40;7.73;;;15.10;99.90;;;;;;2093424;28;20524;-86
2023/10/14 03:06:46;;;;;;;12.10;7.60;;;15.10;99.90;;;;;;2076922;28;20466;-87
2023/10/14 03:07:56;;;;;;;10.93;7.67;;;15.20;99.90;;;;;;2077641;28;20464;-86
2023/10/14 03:09:00;;;;;;;12.47;7.97;;;15.20;99.90;;;;;;2076966;28;20455;-87
2023/10/14 03:10:34;;;;;;;11.70;7.97;;;15.10;99.90;;;;;;2086154;28;20473;-87
2023/10/14 03:11:38;;;;;;;11.40;7.83;;;15.10;99.90;;;;;;2078700;28;20538;-85
2023/10/14 03:12:39;;;;;;;12.97;8.20;;;15.20;99.90;;;;;;2080115;28;20497;-85
2023/10/14 03:13:41;;;;;;;13.97;7.93;;;15.10;99.90;;;;;;2076304;28;20472;-87
2023/10/14 03:14:43;;;;;;;13.40;7.57;;;15.10;99.90;;;;;;2082580;28;20579;-86
2023/10/14 03:15:52;;;;;;;9.63;7.40;;;15.10;99.90;;;;;;2091295;28;20493;-87
2023/10/14 03:16:53;;;;;;;11.17;7.10;;;15.10;99.90;;;;;;2093746;28;20481;-86
2023/10/14 03:17:56;;;;;;;14.13;7.73;;;15.20;99.90;;;;;;2087048;28;20963;-85
2023/10/14 03:18:59;;;;;;;12.37;7.47;;;15.10;99.90;;;;;;2087593;28;20225;-85
2023/10/14 03:20:09;;;;;;;11.30;7.30;;;15.10;99.90;;;;;;2087404;28;20507;-85
2023/10/14 03:21:21;;;;;;;9.83;7.83;;;15.10;99.90;;;;;;2088130;28;20453;-85
2023/10/14 03:22:22;;;;;;;13.47;7.60;;;15.20;99.90;;;;;;2090437;28;20443;-86
2023/10/14 03:23:23;;;;;;;14.50;7.80;;;15.20;99.90;;;;;;2085866;28;20868;-87
2023/10/14 03:24:26;;;;;;;10.33;7.70;;;15.20;99.90;;;;;;2094715;28;20464;-86
2023/10/14 03:25:27;;;;;;;10.97;7.13;;;15.10;99.90;;;;;;2084728;28;20275;-85
2023/10/14 03:26:32;;;;;;;13.53;7.37;;;15.20;99.90;;;;;;2079410;28;21009;-87
2023/10/14 03:27:32;;;;;;;7.23;5.80;;;15.20;99.90;;;;;;2080869;28;20473;-86
2023/10/14 03:28:37;;;;;;;8.63;6.37;;;15.30;99.90;;;;;;2076553;28;20974;-86
2023/10/14 03:29:37;;;;;;;7.97;5.80;;;15.40;99.90;;;;;;2088737;28;20294;-86
2023/10/14 03:30:44;;;;;;;11.87;6.73;;;15.40;99.90;;;;;;2086764;28;20859;-85
2023/10/14 03:31:44;;;;;;;7.03;5.63;;;15.40;99.90;;;;;;2090021;28;20240;-86
2023/10/14 03:32:45;;;;;;;8.10;5.07;;;15.40;99.90;;;;;;2092817;28;20798;-86
2023/10/14 03:33:46;;;;;;;7.53;4.30;;;15.40;99.90;;;;;;2090316;28;20223;-86
2023/10/14 03:34:47;;;;;;;6.77;4.40;;;15.50;99.90;;;;;;2088599;28;20286;-86
2023/10/14 03:36:05;;;;;;;8.80;4.43;;;15.50;99.90;;;;;;2084880;28;20284;-86
2023/10/14 03:37:18;;;;;;;7.80;4.10;;;15.50;99.90;;;;;;2087501;28;20456;-85
2023/10/14 03:39:41;;;;;;;4.37;3.33;;;15.50;99.90;;;;;;2082816;28;20467;-86
2023/10/14 03:41:52;;;;;;;6.10;3.57;;;15.50;99.90;;;;;;2092477;28;20473;-87
2023/10/14 03:42:54;;;;;;;10.43;3.73;;;15.50;99.90;;;;;;2084670;28;20583;-84
2023/10/14 03:44:58;;;;;;;6.57;3.77;;;15.50;99.90;;;;;;2081536;28;20507;-85
2023/10/14 03:46:09;;;;;;;5.30;3.60;;;15.50;99.90;;;;;;2092197;28;20232;-85
2023/10/14 03:47:16;;;;;;;4.77;3.33;;;15.60;99.90;;;;;;2084265;28;20918;-85
2023/10/14 03:48:17;;;;;;;7.10;3.53;;;15.50;99.90;;;;;;2067366;28;20506;-85
2023/10/14 03:49:20;;;;;;;8.73;4.10;;;15.70;99.90;;;;;;2081967;28;20457;-85
2023/10/14 03:50:24;;;;;;;7.27;3.50;;;15.70;99.90;;;;;;2083279;28;20616;-85
2023/10/14 03:51:25;;;;;;;7.20;3.87;;;15.70;99.90;;;;;;2073687;28;20482;-84
2023/10/14 03:52:26;;;;;;;4.83;3.63;;;15.60;99.90;;;;;;2073458;28;20471;-83
2023/10/14 03:53:31;;;;;;;9.63;4.87;;;15.60;99.90;;;;;;2085048;28;20480;-85
2023/10/14 03:54:41;;;;;;;8.10;4.80;;;15.60;99.90;;;;;;2089840;28;20482;-86
2023/10/14 03:55:42;;;;;;;8.97;5.20;;;15.70;99.90;;;;;;2080029;28;20811;-85
2023/10/14 03:56:46;;;;;;;9.73;5.13;;;15.70;99.90;;;;;;2067299;28;20527;-85
2023/10/14 03:57:46;;;;;;;8.77;4.90;;;15.70;99.90;;;;;;2067996;28;20547;-85
2023/10/14 03:58:47;;;;;;;6.97;4.97;;;15.70;99.90;;;;;;2085346;28;20462;-86
2023/10/14 03:59:48;;;;;;;6.47;5.00;;;15.70;99.90;;;;;;2097299;28;20220;-85
2023/10/14 04:00:50;;;;;;;7.43;4.90;;;15.70;99.90;;;;;;2090134;28;20533;-85
2023/10/14 04:01:57;;;;;;;5.70;5.13;;;15.70;99.90;;;;;;2094214;28;20233;-84
2023/10/14 04:02:58;;;;;;;8.40;5.23;;;15.70;99.90;;;;;;2091625;28;20462;-84
2023/10/14 04:04:01;;;;;;;6.93;4.80;;;15.80;99.90;;;;;;2090101;28;20465;-84
2023/10/14 04:05:09;;;;;;;7.57;5.33;;;15.70;99.90;;;;;;2091658;28;20279;-84
2023/10/14 04:06:15;;;;;;;5.67;4.83;;;15.80;99.90;;;;;;2081338;28;20451;-84
2023/10/14 04:07:15;;;;;;;9.00;5.60;;;15.70;99.90;;;;;;2084474;28;20411;-84
2023/10/14 04:08:16;;;;;;;6.40;4.47;;;15.80;99.90;;;;;;2106741;28;20428;-84
2023/10/14 04:09:24;;;;;;;8.73;5.30;;;15.80;99.90;;;;;;2098149;28;20176;-84
2023/10/14 04:10:24;;;;;;;6.83;4.97;;;15.80;99.90;;;;;;2083059;28;20244;-84
2023/10/14 04:11:35;;;;;;;5.40;4.80;;;15.80;99.90;;;;;;2082048;28;20495;-84
2023/10/14 04:13:40;;;;;;;6.77;4.63;;;15.90;99.80;;;;;;2099528;28;20552;-85
2023/10/14 04:14:41;;;;;;;6.20;4.53;;;15.90;99.90;;;;;;2106652;28;20235;-84
2023/10/14 04:15:53;;;;;;;7.27;4.80;;;15.90;99.90;;;;;;2095982;28;20491;-85
2023/10/14 04:18:14;;;;;;;6.67;4.77;;;15.90;99.70;;;;;;2090709;28;20450;-84
2023/10/14 04:19:22;;;;;;;7.03;5.00;;;15.90;99.30;;;;;;2098468;28;20453;-85
2023/10/14 04:20:29;;;;;;;7.93;4.60;;;15.90;99.20;;;;;;2089478;28;20458;-85
2023/10/14 04:21:36;;;;;;;9.33;4.87;;;15.90;99.20;;;;;;2075150;28;20479;-85
2023/10/14 04:23:59;;;;;;;7.30;4.40;;;16.00;99.60;;;;;;2093821;28;20516;-85
2023/10/14 04:26:12;;;;;;;7.30;4.53;;;16.00;98.90;;;;;;2093981;28;20675;-85
2023/10/14 04:28:30;;;;;;;8.70;4.93;;;16.00;99.30;;;;;;2083361;28;20224;-84
2023/10/14 04:29:37;;;;;;;7.40;4.47;;;16.00;99.40;;;;;;2081102;28;20504;-85
2023/10/14 04:30:44;;;;;;;6.47;4.83;;;16.00;99.10;;;;;;2071163;28;20463;-84
2023/10/14 04:31:55;;;;;;;6.53;4.50;;;16.00;98.70;;;;;;2064391;28;20499;-85
2023/10/14 04:34:05;;;;;;;5.33;4.30;;;15.90;98.80;;;;;;2092716;28;20468;-84
2023/10/14 04:35:06;;;;;;;6.93;4.43;;;15.90;98.90;;;;;;2079627;28;20977;-85
2023/10/14 04:37:07;;;;;;;5.97;4.47;;;15.90;98.60;;;;;;2097432;28;20180;-85
2023/10/14 04:38:16;;;;;;;9.60;4.63;;;15.90;98.70;;;;;;2087461;28;20199;-85
2023/10/14 04:39:25;;;;;;;10.23;4.40;;;16.00;98.30;;;;;;2080774;28;20169;-85
2023/10/14 04:41:36;;;;;;;8.00;4.30;;;16.00;97.90;;;;;;2082391;28;21676;-86
2023/10/14 04:42:42;;;;;;;9.47;4.90;;;16.00;98.20;;;;;;2087088;28;20462;-85
2023/10/14 04:44:00;;;;;;;7.07;4.73;;;16.00;98.60;;;;;;2075189;28;20502;-85
2023/10/14 04:45:03;;;;;;;7.27;4.60;;;15.90;98.90;;;;;;2080156;28;21108;-85
2023/10/14 04:47:19;;;;;;;6.33;4.67;;;15.80;99.10;;;;;;2083037;28;20453;-85
2023/10/14 04:48:35;;;;;;;7.10;4.60;;;15.80;99.10;;;;;;2082668;28;20515;-85
2023/10/14 04:49:37;;;;;;;6.90;4.40;;;15.70;99.00;;;;;;2085205;28;20478;-84
2023/10/14 04:50:38;;;;;;;10.80;4.87;;;15.80;98.80;;;;;;2087536;28;21056;-85
2023/10/14 04:51:45;;;;;;;8.00;4.70;;;15.80;98.60;;;;;;2075836;28;20517;-84
2023/10/14 04:52:48;;;;;;;8.33;5.03;;;15.80;98.80;;;;;;2073957;28;20505;-84
2023/10/14 04:53:49;;;;;;;8.20;4.70;;;15.80;98.60;;;;;;2080926;28;20536;-85
2023/10/14 04:54:54;;;;;;;8.80;5.03;;;15.80;98.60;;;;;;2083506;28;20497;-85
2023/10/14 04:55:55;;;;;;;9.30;4.77;;;15.80;98.60;;;;;;2085712;28;20568;-84
2023/10/14 04:56:57;;;;;;;9.07;4.77;;;15.80;98.80;;;;;;2087914;28;20511;-85
2023/10/14 04:59:12;;;;;;;8.07;4.47;;;15.80;98.80;;;;;;2082198;28;20468;-85
2023/10/14 05:00:19;;;;;;;9.30;5.00;;;15.80;99.10;;;;;;2092916;28;20432;-85
2023/10/14 05:01:24;;;;;;;9.20;5.23;;;15.80;99.00;;;;;;2080150;28;20454;-84
2023/10/14 05:02:26;;;;;;;8.50;5.20;;;15.80;99.00;;;;;;2088437;28;20472;-86
2023/10/14 05:03:31;;;;;;;7.37;5.03;;;15.80;99.10;;;;;;2086974;28;20468;-85
2023/10/14 05:04:37;;;;;;;8.43;4.57;;;15.80;99.20;;;;;;2085342;28;20465;-84
2023/10/14 05:05:41;;;;;;;8.97;5.17;;;15.90;99.50;;;;;;2084710;28;20915;-86
2023/10/14 05:06:46;;;;;;;8.53;4.60;;;15.80;99.50;;;;;;2086705;28;20473;-86
2023/10/14 05:07:47;;;;;;;6.67;5.13;;;15.70;99.10;;;;;;2079670;28;20541;-86
2023/10/14 05:08:56;;;;;;;6.07;4.53;;;15.70;99.30;;;;;;2082429;28;20481;-85
2023/10/14 05:09:59;;;;;;;8.17;4.83;;;15.70;99.30;;;;;;2085125;28;20229;-84
2023/10/14 05:11:00;;;;;;;10.30;4.83;;;15.80;99.40;;;;;;2087036;28;20465;-85
2023/10/14 05:12:01;;;;;;;7.93;5.20;;;15.70;99.00;;;;;;2085657;28;20465;-84
2023/10/14 05:13:09;;;;;;;6.97;4.57;;;15.70;99.10;;;;;;2075381;28;20489;-86
2023/10/14 05:14:14;;;;;;;6.03;5.00;;;15.70;99.10;;;;;;2074333;28;20238;-85
2023/10/14 05:15:21;;;;;;;9.13;4.50;;;15.70;99.20;;;;;;2082898;28;20476;-85
2023/10/14 05:16:22;;;;;;;9.13;4.50;;;15.70;99.20;;;;;;2089810;28;20432;-84
2023/10/14 05:17:26;;;;;;;7.77;4.87;;;15.80;99.10;;;;;;2092184;28;20480;-84
2023/10/14 05:18:30;;;;;;;8.07;5.00;;;15.70;99.40;;;;;;2084261;28;20220;-86
2023/10/14 05:19:35;;;;;;;7.53;5.23;;;15.70;99.50;;;;;;2095785;28;21013;-85
2023/10/14 05:21:02;;;;;;;8.13;5.10;;;15.70;99.50;;;;;;2089667;28;20470;-85
2023/10/14 05:22:05;;;;;;;8.20;5.10;;;15.70;99.70;;;;;;2085177;28;20473;-85
2023/10/14 05:23:05;;;;;;;8.30;4.87;;;15.70;99.70;;;;;;2086894;28;20486;-84
2023/10/14 05:24:09;;;;;;;7.53;4.60;;;15.70;99.90;;;;;;2092089;28;20472;-85
2023/10/14 05:25:15;;;;;;;9.27;4.97;;;15.70;99.70;;;;;;2090672;28;20211;-86
2023/10/14 05:26:27;;;;;;;8.40;4.67;;;15.70;99.50;;;;;;2088722;28;20405;-84
2023/10/14 05:27:45;;;;;;;8.80;5.00;;;15.80;99.60;;;;;;2080011;28;20475;-85
2023/10/14 05:28:46;;;;;;;8.53;5.00;;;15.70;99.40;;;;;;2080174;28;21031;-85
2023/10/14 05:29:52;;;;;;;8.13;5.27;;;15.70;99.10;;;;;;2080948;28;20513;-85
2023/10/14 05:30:55;;;;;;;7.70;4.93;;;15.70;99.20;;;;;;2088641;28;20217;-85
2023/10/14 05:32:10;;;;;;;7.73;4.53;;;15.70;99.40;;;;;;2086094;28;21060;-85
2023/10/14 05:33:13;;;;;;;10.00;5.33;;;15.70;99.40;;;;;;2079387;28;20453;-85
2023/10/14 05:34:16;;;;;;;7.67;4.97;;;15.70;99.40;;;;;;2080047;28;20472;-85
2023/10/14 05:35:17;;;;;;;6.77;5.07;;;15.70;99.50;;;;;;2073450;28;20486;-84
2023/10/14 05:36:18;;;;;;;7.67;4.80;;;15.70;99.50;;;;;;2085201;28;20432;-84
2023/10/14 05:37:21;;;;;;;8.33;5.50;;;15.70;99.00;;;;;;2094030;28;20419;-85
2023/10/14 05:38:22;;;;;;;8.63;5.13;;;15.70;99.10;;;;;;2090684;28;20180;-85
2023/10/14 05:39:24;;;;;;;9.67;5.60;;;15.70;99.10;;;;;;2082960;28;20518;-85
2023/10/14 05:40:25;;;;;;;11.83;5.03;;;15.70;99.10;;;;;;2075205;28;20283;-85
2023/10/14 05:41:26;;;;;;;6.77;5.00;;;15.70;99.40;;;;;;2080544;28;20557;-86
2023/10/14 05:42:27;;;;;;;8.27;5.13;;;15.70;99.10;;;;;;2094089;28;20226;-86
2023/10/14 05:43:28;;;;;;;9.43;5.53;;;15.60;99.00;;;;;;2084704;28;20221;-85
2023/10/14 05:44:29;;;;;;;9.20;5.57;;;15.70;99.10;;;;;;2089331;28;20540;-86
2023/10/14 05:45:34;;;;;;;7.80;5.03;;;15.70;98.70;;;;;;2084522;28;20299;-84
2023/10/14 05:46:34;;;;;;;7.67;5.30;;;15.70;98.60;;;;;;2084364;28;20219;-84
2023/10/14 05:47:36;;;;;;;11.57;4.90;;;15.70;98.60;;;;;;2089473;28;21696;-84
2023/10/14 05:48:37;;;;;;;9.50;4.93;;;15.70;98.80;;;;;;2088011;28;20217;-85
2023/10/14 05:49:38;;;;;;;10.07;5.40;;;15.70;98.90;;;;;;2078600;28;20474;-84
2023/10/14 05:50:39;;;;;;;9.90;5.20;;;15.70;99.00;;;;;;2075268;28;20252;-86
2023/10/14 05:51:39;;;;;;;9.77;5.03;;;15.70;98.80;;;;;;2082845;28;20721;-85
2023/10/14 05:52:45;;;;;;;9.07;4.93;;;15.60;98.50;;;;;;2091110;28;20219;-85
2023/10/14 05:53:46;;;;;;;7.63;5.13;;;15.70;98.80;;;;;;2085429;28;20223;-86
2023/10/14 05:54:49;;;;;;;9.57;4.87;;;15.60;98.60;;;;;;2093868;28;20515;-85
2023/10/14 05:56:09;;;;;;;10.87;5.70;;;15.60;98.80;;;;;;2087609;28;20639;-84